Time;durP1;ratioP1;P1;durP2;ratioP2;P2;SDS_P1;SDS_P2;PMS_P1;PMS_P2;Temp;Humidity;BMP_temperature;BMP_pressure;BME280_temperature;BME280_humidity;BME280_pressure;Samples;Min_cycle;Max_cycle;Signal;HPM_P1;HPM_P2
2024/01/13 00:00:09;;;;;;;29.70;18.17;;;;;;;-1.74;61.42;93732.84;521792;28;861;-70
2024/01/13 00:00:24;;;;;;;30.98;18.90;;;;;;;-1.75;61.76;93731.34;521898;28;784;-70
2024/01/13 00:00:40;;;;;;;33.97;18.50;;;;;;;-1.75;61.91;93733.28;521743;28;802;-70
2024/01/13 00:00:55;;;;;;;34.30;18.42;;;;;;;-1.74;61.68;93729.38;521873;28;909;-70
2024/01/13 00:01:11;;;;;;;29.92;17.73;;;;;;;-1.72;61.77;93726.97;521692;28;762;-70
2024/01/13 00:01:26;;;;;;;27.63;17.10;;;;;;;-1.71;61.84;93731.91;521862;28;912;-70
2024/01/13 00:01:42;;;;;;;26.52;17.80;;;;;;;-1.68;61.60;93735.66;521869;28;774;-70
2024/01/13 00:01:57;;;;;;;26.30;18.47;;;;;;;-1.68;62.00;93724.81;521716;28;837;-70
2024/01/13 00:02:13;;;;;;;28.37;18.37;;;;;;;-1.69;61.67;93734.16;521830;28;764;-70
2024/01/13 00:02:28;;;;;;;28.83;17.23;;;;;;;-1.70;62.15;93725.28;521730;28;786;-70
2024/01/13 00:02:44;;;;;;;28.92;16.95;;;;;;;-1.74;61.90;93734.78;521816;28;912;-70
2024/01/13 00:03:00;;;;;;;29.07;17.17;;;;;;;-1.75;61.45;93733.28;521825;28;1085;-70
2024/01/13 00:03:16;;;;;;;29.52;16.55;;;;;;;-1.75;61.83;93731.34;521831;28;906;-70
2024/01/13 00:03:31;;;;;;;31.37;16.70;;;;;;;-1.74;61.61;93727.44;521726;28;869;-70
2024/01/13 00:03:46;;;;;;;29.93;16.43;;;;;;;-1.74;61.64;93727.44;521747;28;1204;-70
2024/01/13 00:04:02;;;;;;;28.52;16.73;;;;;;;-1.72;61.52;93735.09;521783;28;886;-70
2024/01/13 00:04:17;;;;;;;28.87;16.23;;;;;;;-1.74;61.51;93732.84;521770;28;1017;-70
2024/01/13 00:04:33;;;;;;;29.27;16.67;;;;;;;-1.76;61.43;93731.81;521796;28;1219;-70
2024/01/13 00:04:48;;;;;;;28.43;17.07;;;;;;;-1.75;61.34;93730.59;521710;28;1105;-70
2024/01/13 00:05:04;;;;;;;27.30;17.38;;;;;;;-1.77;61.66;93731.06;521877;28;861;-70
2024/01/13 00:05:20;;;;;;;27.92;17.70;;;;;;;-1.80;62.05;93728.53;521716;28;944;-70
2024/01/13 00:05:35;;;;;;;27.37;16.80;;;;;;;-1.83;62.31;93732.91;521825;28;766;-70
2024/01/13 00:05:51;;;;;;;25.60;16.70;;;;;;;-1.85;62.35;93729.16;523608;28;1269;-70
2024/01/13 00:06:06;;;;;;;25.63;16.37;;;;;;;-1.92;61.85;93730.25;523911;28;821;-70
2024/01/13 00:06:22;;;;;;;27.75;16.13;;;;;;;-1.95;62.01;93736.59;523765;28;889;-69
2024/01/13 00:06:37;;;;;;;28.80;17.10;;;;;;;-1.94;61.96;93734.63;523827;28;789;-70
2024/01/13 00:06:53;;;;;;;28.55;16.77;;;;;;;-1.91;62.13;93729.06;523911;28;928;-70
2024/01/13 00:07:09;;;;;;;27.25;16.15;;;;;;;-1.91;62.33;93734.47;523816;28;857;-70
2024/01/13 00:07:24;;;;;;;27.17;16.20;;;;;;;-1.91;61.97;93744.53;524002;28;821;-70
2024/01/13 00:07:39;;;;;;;28.08;16.17;;;;;;;-1.91;62.40;93734.47;523788;28;877;-70
2024/01/13 00:07:55;;;;;;;28.13;16.70;;;;;;;-1.94;62.21;93738.09;523962;28;766;-70
2024/01/13 00:08:11;;;;;;;26.13;16.48;;;;;;;-2.01;62.49;93734.97;523795;28;785;-70
2024/01/13 00:08:26;;;;;;;23.33;15.23;;;;;;;-2.03;62.75;93734.69;523860;28;1088;-70
2024/01/13 00:08:41;;;;;;;24.80;15.43;;;;;;;-2.11;62.88;93734.31;523829;28;862;-70
2024/01/13 00:08:57;;;;;;;25.63;16.13;;;;;;;-2.12;63.03;93740.19;523928;28;853;-70
2024/01/13 00:09:12;;;;;;;27.23;16.30;;;;;;;-2.15;62.79;93739.13;523881;28;873;-70
2024/01/13 00:09:28;;;;;;;29.17;16.27;;;;;;;-2.13;63.04;93736.72;523766;28;873;-70
2024/01/13 00:09:43;;;;;;;28.13;16.50;;;;;;;-2.17;63.08;93741.56;523854;28;912;-70
2024/01/13 00:09:59;;;;;;;28.30;16.30;;;;;;;-2.20;62.93;93734.34;523830;28;789;-70
2024/01/13 00:10:14;;;;;;;30.00;16.67;;;;;;;-2.19;63.05;93740.53;523939;28;762;-70
2024/01/13 00:10:29;;;;;;;27.20;16.88;;;;;;;-2.18;63.27;93739.28;523839;28;822;-70
2024/01/13 00:10:45;;;;;;;23.57;15.90;;;;;;;-2.23;62.97;93737.97;523880;28;842;-70
2024/01/13 00:11:00;;;;;;;21.77;15.25;;;;;;;-2.29;63.17;93734.41;523811;28;1138;-70
2024/01/13 00:11:16;;;;;;;24.87;15.67;;;;;;;-2.28;62.92;93735.91;523935;28;778;-70
2024/01/13 00:11:31;;;;;;;26.63;15.77;;;;;;;-2.26;63.16;93740.84;523852;28;786;-70
2024/01/13 00:11:47;;;;;;;26.00;15.63;;;;;;;-2.28;63.23;93733.22;523940;28;856;-70
2024/01/13 00:12:02;;;;;;;25.50;16.00;;;;;;;-2.23;62.89;93735.25;523827;28;1084;-70
2024/01/13 00:12:18;;;;;;;26.50;16.37;;;;;;;-2.22;62.99;93733.31;523803;28;1147;-70
2024/01/13 00:12:34;;;;;;;28.92;16.85;;;;;;;-2.23;63.09;93737.97;523925;28;857;-70
2024/01/13 00:12:49;;;;;;;27.43;17.10;;;;;;;-2.23;63.39;93735.25;523840;28;881;-70
2024/01/13 00:13:05;;;;;;;26.60;17.08;;;;;;;-2.19;63.54;93738.56;523924;28;909;-70
2024/01/13 00:13:21;;;;;;;29.10;17.23;;;;;;;-2.16;63.12;93731.47;523711;28;1914;-70
2024/01/13 00:13:36;;;;;;;27.70;16.75;;;;;;;-2.14;63.08;93743.31;523730;28;908;-70
2024/01/13 00:13:51;;;;;;;27.80;17.27;;;;;;;-2.12;63.27;93740.91;523860;28;845;-70
2024/01/13 00:14:07;;;;;;;29.23;17.17;;;;;;;-2.11;63.28;93728.13;523867;28;881;-70
2024/01/13 00:14:22;;;;;;;28.63;16.77;;;;;;;-2.16;63.48;93731.47;523854;28;845;-70
2024/01/13 00:14:38;;;;;;;28.20;16.77;;;;;;;-2.24;63.70;93733.78;523806;28;921;-70
2024/01/13 00:14:53;;;;;;;27.13;16.02;;;;;;;-2.24;64.00;93739.19;523826;28;836;-70
2024/01/13 00:15:09;;;;;;;27.60;15.90;;;;;;;-2.26;63.91;93741.59;523616;28;848;-69
2024/01/13 00:15:24;;;;;;;28.00;16.05;;;;;;;-2.30;63.79;93741.03;523673;28;928;-70
2024/01/13 00:15:40;;;;;;;27.03;16.00;;;;;;;-2.42;64.21;93739.28;523568;28;790;-70
2024/01/13 00:15:55;;;;;;;26.98;15.95;;;;;;;-2.47;64.47;93732.53;524008;28;1061;-70
2024/01/13 00:16:10;;;;;;;25.83;15.50;;;;;;;-2.52;64.33;93732.44;523816;28;1024;-70
2024/01/13 00:16:26;;;;;;;26.33;15.80;;;;;;;-2.55;64.70;93734.09;523873;28;829;-70
2024/01/13 00:16:41;;;;;;;25.93;16.63;;;;;;;-2.55;64.94;93736.03;523852;28;850;-70
2024/01/13 00:16:57;;;;;;;26.02;16.13;;;;;;;-2.59;64.78;93735.47;523837;28;928;-70
2024/01/13 00:17:12;;;;;;;25.63;14.90;;;;;;;-2.53;64.66;93736.31;523940;28;829;-70
2024/01/13 00:17:28;;;;;;;25.97;15.53;;;;;;;-2.56;64.80;93735.31;523844;28;774;-70
2024/01/13 00:17:43;;;;;;;25.42;16.27;;;;;;;-2.61;64.66;93740.56;523830;28;832;-70
2024/01/13 00:17:58;;;;;;;25.27;16.33;;;;;;;-2.75;65.29;93733.13;523825;28;877;-70
2024/01/13 00:18:14;;;;;;;25.27;16.23;;;;;;;-2.75;65.36;93743.94;523922;28;798;-70
2024/01/13 00:18:30;;;;;;;26.00;16.60;;;;;;;-2.95;65.75;93728.25;523744;28;802;-70
2024/01/13 00:18:45;;;;;;;28.45;17.08;;;;;;;-2.89;65.97;93745.34;523925;28;818;-70
2024/01/13 00:19:01;;;;;;;28.57;16.77;;;;;;;-2.89;65.85;93737.22;523762;28;712;-70
2024/01/13 00:19:16;;;;;;;26.00;16.27;;;;;;;-2.84;65.88;93738.56;523850;28;876;-70
2024/01/13 00:19:31;;;;;;;28.97;16.50;;;;;;;-2.81;65.99;93746.50;523818;28;956;-70
2024/01/13 00:19:47;;;;;;;29.85;16.33;;;;;;;-2.77;65.96;93746.34;523845;28;794;-70
2024/01/13 00:20:03;;;;;;;25.77;15.60;;;;;;;-2.77;66.24;93744.38;523879;28;861;-70
2024/01/13 00:20:18;;;;;;;25.70;15.43;;;;;;;-2.73;65.70;93742.25;523874;28;806;-70
2024/01/13 00:20:34;;;;;;;26.88;15.48;;;;;;;-2.69;66.00;93745.56;523850;28;861;-70
2024/01/13 00:20:49;;;;;;;24.83;14.90;;;;;;;-2.63;65.81;93745.69;523880;28;778;-70
2024/01/13 00:21:05;;;;;;;24.65;15.20;;;;;;;-2.61;65.64;93738.63;523887;28;943;-70
2024/01/13 00:21:20;;;;;;;26.13;16.47;;;;;;;-2.58;65.75;93747.78;523841;28;782;-70
2024/01/13 00:21:35;;;;;;;26.07;16.60;;;;;;;-2.58;65.59;93748.53;523855;28;912;-70
2024/01/13 00:21:51;;;;;;;25.67;16.05;;;;;;;-2.58;65.34;93742.38;523806;28;798;-70
2024/01/13 00:22:06;;;;;;;27.03;16.23;;;;;;;-2.54;65.13;93751.06;523845;28;770;-70
2024/01/13 00:22:22;;;;;;;28.88;16.80;;;;;;;-2.51;64.94;93745.47;523870;28;869;-70
2024/01/13 00:22:37;;;;;;;28.73;17.23;;;;;;;-2.47;65.39;93748.75;523833;28;877;-70
2024/01/13 00:22:53;;;;;;;27.05;17.08;;;;;;;-2.44;65.21;93739.75;523935;28;829;-70
2024/01/13 00:23:08;;;;;;;26.57;16.70;;;;;;;-2.45;64.92;93740.22;523806;28;881;-70
2024/01/13 00:23:24;;;;;;;28.90;16.60;;;;;;;-2.37;64.74;93741.38;523862;28;802;-70
2024/01/13 00:23:39;;;;;;;30.33;16.77;;;;;;;-2.37;65.05;93746.78;523757;28;774;-70
2024/01/13 00:23:56;;;;;;;28.45;16.25;;;;;;;-2.36;65.08;93746.31;523908;28;869;-70
2024/01/13 00:24:11;;;;;;;26.15;15.48;;;;;;;-2.32;64.85;93746.16;523809;28;865;-71
2024/01/13 00:24:27;;;;;;;26.17;16.20;;;;;;;-2.31;64.76;93742.97;523886;28;864;-70
2024/01/13 00:24:42;;;;;;;28.53;16.43;;;;;;;-2.31;64.89;93748.38;523865;28;821;-70
2024/01/13 00:24:58;;;;;;;28.10;16.48;;;;;;;-2.31;64.71;93740.28;523759;28;905;-70
2024/01/13 00:25:15;;;;;;;29.03;16.60;;;;;;;-2.30;64.92;93741.03;523877;28;845;-70
2024/01/13 00:25:30;;;;;;;27.20;16.20;;;;;;;-2.28;64.56;93745.97;523772;28;877;-70
2024/01/13 00:25:46;;;;;;;25.42;16.38;;;;;;;-2.27;64.59;93745.50;523885;28;857;-70
2024/01/13 00:26:02;;;;;;;26.73;16.52;;;;;;;-2.24;64.61;93738.44;523695;28;853;-70
2024/01/13 00:26:17;;;;;;;26.50;15.77;;;;;;;-2.23;64.67;93737.97;523857;28;874;-70
2024/01/13 00:26:33;;;;;;;24.23;15.02;;;;;;;-2.19;64.12;93746.69;523877;28;794;-70
2024/01/13 00:26:48;;;;;;;22.53;14.90;;;;;;;-2.17;64.34;93748.91;523831;28;1120;-70
2024/01/13 00:27:04;;;;;;;23.65;15.27;;;;;;;-2.15;64.23;93744.56;523933;28;817;-70
2024/01/13 00:27:20;;;;;;;26.75;16.55;;;;;;;-2.14;63.73;93746.03;523831;28;786;-70
2024/01/13 00:27:36;;;;;;;27.15;16.35;;;;;;;-2.13;63.60;93744.84;523784;28;857;-71
2024/01/13 00:27:51;;;;;;;26.08;15.90;;;;;;;-2.13;63.51;93736.72;523833;28;818;-70
2024/01/13 00:28:07;;;;;;;26.03;16.33;;;;;;;-2.12;63.67;93740.91;523876;28;928;-70
2024/01/13 00:28:22;;;;;;;27.33;16.73;;;;;;;-2.09;63.79;93745.41;523817;28;794;-70
2024/01/13 00:28:37;;;;;;;27.03;16.60;;;;;;;-2.08;63.72;93746.16;523673;28;948;-70
2024/01/13 00:28:53;;;;;;;28.00;16.50;;;;;;;-2.07;63.62;93739.53;523842;28;829;-70
2024/01/13 00:29:10;;;;;;;30.27;17.27;;;;;;;-2.06;63.94;93736.38;523758;28;921;-70
2024/01/13 00:29:26;;;;;;;28.17;17.20;;;;;;;-2.03;63.92;93737.41;523890;28;837;-70
2024/01/13 00:29:42;;;;;;;28.17;17.40;;;;;;;-2.06;63.62;93738.34;523797;28;811;-70
2024/01/13 00:29:58;;;;;;;27.35;16.80;;;;;;;-2.07;63.96;93736.81;523848;28;917;-70
2024/01/13 00:30:15;;;;;;;24.77;15.55;;;;;;;-2.06;63.74;93739.09;523843;28;869;-72
2024/01/13 00:30:30;;;;;;;24.80;15.52;;;;;;;-2.04;63.90;93731.25;523838;28;868;-70
2024/01/13 00:30:45;;;;;;;22.27;14.80;;;;;;;-2.04;63.99;93733.97;523841;28;877;-70
2024/01/13 00:31:01;;;;;;;21.50;14.70;;;;;;;-2.02;63.64;93736.97;523769;28;866;-70
2024/01/13 00:31:17;;;;;;;20.63;14.40;;;;;;;-2.07;63.85;93732.16;523907;28;857;-70
2024/01/13 00:31:32;;;;;;;21.27;14.55;;;;;;;-2.08;63.54;93732.63;523820;28;880;-70
2024/01/13 00:31:48;;;;;;;24.43;16.00;;;;;;;-2.08;63.64;93738.03;523833;28;762;-70
2024/01/13 00:32:03;;;;;;;26.67;16.48;;;;;;;-2.14;63.84;93735.22;523871;28;829;-70
2024/01/13 00:32:19;;;;;;;27.90;16.13;;;;;;;-2.13;63.77;93742.13;523755;28;829;-70
2024/01/13 00:32:35;;;;;;;28.07;15.90;;;;;;;-2.13;63.62;93736.72;523720;28;798;-70
2024/01/13 00:32:50;;;;;;;26.65;15.77;;;;;;;-2.11;63.91;93731.59;523610;28;934;-70
2024/01/13 00:33:06;;;;;;;26.00;15.63;;;;;;;-2.10;64.05;93735.78;523679;28;852;-70
2024/01/13 00:33:21;;;;;;;27.40;15.85;;;;;;;-2.06;63.73;93732.94;523522;28;1910;-70
2024/01/13 00:33:36;;;;;;;25.83;15.00;;;;;;;-2.06;63.78;93732.94;523673;28;845;-70
2024/01/13 00:33:52;;;;;;;23.17;14.25;;;;;;;-2.06;63.53;93738.34;523622;28;954;-70
2024/01/13 00:34:07;;;;;;;23.63;14.93;;;;;;;-2.04;63.54;93735.91;523619;28;849;-70
2024/01/13 00:34:23;;;;;;;25.23;14.82;;;;;;;-2.03;63.58;93732.75;523643;28;790;-70
2024/01/13 00:34:38;;;;;;;26.40;14.83;;;;;;;-2.01;63.34;93740.38;523625;28;829;-70
2024/01/13 00:34:54;;;;;;;26.25;14.38;;;;;;;-1.99;63.17;93727.19;523721;28;857;-70
2024/01/13 00:35:09;;;;;;;22.23;14.00;;;;;;;-1.99;62.67;93738.72;523618;28;924;-70
2024/01/13 00:35:24;;;;;;;21.27;14.33;;;;;;;-1.95;62.68;93741.28;523688;28;802;-70
2024/01/13 00:35:40;;;;;;;22.55;14.00;;;;;;;-1.95;63.06;93739.28;523559;28;901;-70
2024/01/13 00:35:55;;;;;;;22.93;14.27;;;;;;;-1.94;62.84;93738.09;523758;28;841;-70
2024/01/13 00:36:11;;;;;;;22.58;14.68;;;;;;;-1.97;62.40;93736.31;523634;28;810;-70
2024/01/13 00:36:26;;;;;;;22.40;14.23;;;;;;;-2.00;62.44;93736.50;523618;28;786;-71
2024/01/13 00:36:42;;;;;;;24.73;14.02;;;;;;;-2.05;62.21;93739.81;523673;28;901;-70
2024/01/13 00:36:57;;;;;;;25.10;14.93;;;;;;;-2.04;62.51;93741.31;523618;28;857;-70
2024/01/13 00:37:13;;;;;;;24.48;15.20;;;;;;;-2.05;62.00;93732.47;523559;28;948;-70
2024/01/13 00:37:28;;;;;;;24.27;14.73;;;;;;;-2.09;62.39;93737.28;523664;28;781;-70
2024/01/13 00:37:44;;;;;;;23.77;13.82;;;;;;;-2.12;62.55;93735.50;523541;28;1025;-70
2024/01/13 00:37:59;;;;;;;23.35;13.63;;;;;;;-2.13;62.63;93735.97;523469;28;911;-70
2024/01/13 00:38:15;;;;;;;23.17;14.70;;;;;;;-2.13;62.49;93739.44;523617;28;786;-70
2024/01/13 00:38:30;;;;;;;22.97;14.30;;;;;;;-2.11;62.51;93739.72;523511;28;893;-70
2024/01/13 00:38:46;;;;;;;23.85;14.02;;;;;;;-2.07;62.57;93743.00;523641;28;814;-70
2024/01/13 00:39:01;;;;;;;26.50;15.47;;;;;;;-2.07;62.50;93732.16;523577;28;775;-70
2024/01/13 00:39:17;;;;;;;25.63;15.38;;;;;;;-2.05;62.52;93735.16;523709;28;842;-70
2024/01/13 00:39:32;;;;;;;24.40;14.73;;;;;;;-2.03;62.72;93737.41;523621;28;1122;-70
2024/01/13 00:39:47;;;;;;;22.45;13.77;;;;;;;-2.03;62.59;93732.00;523786;28;790;-70
2024/01/13 00:40:03;;;;;;;21.13;12.93;;;;;;;-2.08;62.39;93725.25;523810;28;792;-70
2024/01/13 00:40:19;;;;;;;25.38;13.52;;;;;;;-2.01;62.36;93734.97;523859;28;842;-70
2024/01/13 00:40:34;;;;;;;25.60;13.93;;;;;;;-2.01;62.29;93734.97;523808;28;996;-70
2024/01/13 00:40:49;;;;;;;22.15;13.60;;;;;;;-2.04;62.42;93735.91;523838;28;1010;-70
2024/01/13 00:41:05;;;;;;;22.43;13.60;;;;;;;-2.08;62.20;93733.38;523822;28;833;-70
2024/01/13 00:41:21;;;;;;;21.88;13.15;;;;;;;-2.06;62.17;93732.94;523758;28;865;-70
2024/01/13 00:41:36;;;;;;;19.93;12.73;;;;;;;-2.17;62.54;93730.75;523824;28;911;-70
2024/01/13 00:41:52;;;;;;;20.57;13.90;;;;;;;-2.21;62.31;93732.88;523796;28;763;-70
2024/01/13 00:42:07;;;;;;;21.50;14.40;;;;;;;-2.18;62.16;93731.94;523617;28;809;-70
2024/01/13 00:42:23;;;;;;;24.50;14.60;;;;;;;-2.16;62.33;93739.59;523706;28;774;-70
2024/01/13 00:42:38;;;;;;;24.17;14.43;;;;;;;-2.14;62.13;93737.91;523556;28;798;-70
2024/01/13 00:42:54;;;;;;;21.55;14.40;;;;;;;-2.11;62.60;93730.84;524250;28;810;-70
2024/01/13 00:43:09;;;;;;;24.42;15.13;;;;;;;-2.11;62.45;93731.59;523433;28;813;-70
2024/01/13 00:43:25;;;;;;;27.07;15.60;;;;;;;-2.13;62.24;93727.84;523583;28;802;-70
2024/01/13 00:43:40;;;;;;;25.67;14.88;;;;;;;-2.14;62.29;93737.19;523408;28;999;-70
2024/01/13 00:43:56;;;;;;;24.33;14.17;;;;;;;-2.16;62.62;93734.16;523455;28;786;-70
2024/01/13 00:44:11;;;;;;;25.93;14.70;;;;;;;-2.19;62.91;93735.09;523407;28;846;-70
2024/01/13 00:44:26;;;;;;;25.70;14.63;;;;;;;-2.19;62.83;93732.41;523580;28;865;-70
2024/01/13 00:44:42;;;;;;;25.77;14.30;;;;;;;-2.19;62.44;93740.53;523433;28;897;-70
2024/01/13 00:44:57;;;;;;;24.20;14.60;;;;;;;-2.18;62.76;93737.34;523612;28;846;-70
2024/01/13 00:45:13;;;;;;;23.20;15.20;;;;;;;-2.21;62.59;93738.28;523740;28;806;-70
2024/01/13 00:45:28;;;;;;;23.23;14.45;;;;;;;-2.23;63.03;93735.25;523518;28;925;-70
2024/01/13 00:45:44;;;;;;;22.17;14.10;;;;;;;-2.22;63.06;93736.78;523662;28;778;-70
2024/01/13 00:45:59;;;;;;;24.60;14.90;;;;;;;-2.21;63.08;93737.53;523669;28;845;-70
2024/01/13 00:46:15;;;;;;;25.50;14.57;;;;;;;-2.20;62.91;93741.72;523637;28;1351;-70
2024/01/13 00:46:30;;;;;;;25.45;14.60;;;;;;;-2.18;62.65;93737.34;523468;28;782;-70
2024/01/13 00:46:46;;;;;;;24.30;14.97;;;;;;;-2.16;62.90;93736.88;523480;28;774;-70
2024/01/13 00:47:01;;;;;;;23.02;14.65;;;;;;;-2.14;62.88;93727.09;523470;28;908;-70
2024/01/13 00:47:16;;;;;;;22.17;13.67;;;;;;;-2.14;62.68;93729.06;523564;28;881;-70
2024/01/13 00:47:32;;;;;;;25.20;14.97;;;;;;;-2.21;62.38;93729.41;523452;28;782;-70
2024/01/13 00:47:47;;;;;;;25.52;15.70;;;;;;;-2.20;62.81;93734.34;523521;28;857;-70
2024/01/13 00:48:03;;;;;;;22.95;14.70;;;;;;;-2.26;62.26;93730.78;523486;28;872;-70
2024/01/13 00:48:19;;;;;;;21.50;13.53;;;;;;;-2.33;62.64;93733.81;523458;28;794;-70
2024/01/13 00:48:36;;;;;;;20.35;12.15;;;;;;;-2.40;62.52;93731.44;523651;28;869;-70
2024/01/13 00:48:51;;;;;;;21.00;12.50;;;;;;;-2.44;62.28;93726.22;523603;28;892;-70
2024/01/13 00:49:06;;;;;;;22.50;13.63;;;;;;;-2.46;63.01;93731.34;523880;28;814;-70
2024/01/13 00:49:22;;;;;;;26.13;14.10;;;;;;;-2.48;62.58;93731.06;523812;28;873;-70
2024/01/13 00:49:37;;;;;;;26.23;14.27;;;;;;;-2.54;62.61;93727.50;523729;28;782;-70
2024/01/13 00:49:53;;;;;;;25.20;14.10;;;;;;;-2.56;62.95;93729.91;523839;28;802;-70
2024/01/13 00:50:08;;;;;;;25.73;14.07;;;;;;;-2.60;63.28;93729.28;523793;28;802;-70
2024/01/13 00:50:24;;;;;;;21.47;13.67;;;;;;;-2.59;63.41;93724.63;523897;28;832;-70
2024/01/13 00:50:39;;;;;;;18.85;13.15;;;;;;;-2.55;63.36;93730.63;523775;28;845;-70
2024/01/13 00:50:54;;;;;;;21.13;13.63;;;;;;;-2.53;62.99;93730.91;523872;28;881;-70
2024/01/13 00:51:11;;;;;;;22.73;13.98;;;;;;;-2.50;63.05;93736.16;523696;28;782;-70
2024/01/13 00:51:26;;;;;;;22.40;13.63;;;;;;;-2.47;63.17;93731.81;523836;28;889;-70
2024/01/13 00:51:42;;;;;;;22.35;13.77;;;;;;;-2.44;62.90;93728.94;523796;28;829;-70
2024/01/13 00:51:57;;;;;;;24.07;14.43;;;;;;;-2.43;62.89;93730.44;523852;28;845;-70
2024/01/13 00:52:13;;;;;;;22.77;14.50;;;;;;;-2.43;62.96;93727.72;523807;28;928;-70
2024/01/13 00:52:28;;;;;;;21.70;13.97;;;;;;;-2.41;62.83;93727.25;523730;28;762;-70
2024/01/13 00:52:43;;;;;;;22.00;14.13;;;;;;;-2.40;62.83;93729.50;523874;28;884;-70
2024/01/13 00:52:59;;;;;;;22.52;14.80;;;;;;;-2.40;63.00;93729.50;523775;28;865;-70
2024/01/13 00:53:14;;;;;;;24.40;14.93;;;;;;;-2.44;62.84;93728.19;523872;28;805;-70
2024/01/13 00:53:31;;;;;;;24.70;14.15;;;;;;;-2.44;62.96;93728.19;523704;28;1906;-70
2024/01/13 00:53:46;;;;;;;25.40;14.90;;;;;;;-2.46;63.62;93722.47;523821;28;928;-70
2024/01/13 00:54:06;;;;;;;25.75;15.70;;;;;;;-2.53;63.61;93723.56;523716;28;861;-70
2024/01/13 00:54:21;;;;;;;26.55;15.60;;;;;;;-2.52;63.56;93727.03;523801;28;857;-70
2024/01/13 00:54:36;;;;;;;24.63;15.23;;;;;;;-2.50;63.65;93730.00;523868;28;806;-70
2024/01/13 00:54:52;;;;;;;26.00;15.40;;;;;;;-2.49;63.79;93734.94;523710;28;870;-70
2024/01/13 00:55:08;;;;;;;27.42;15.63;;;;;;;-2.46;63.20;93733.28;523586;28;807;-70
2024/01/13 00:55:23;;;;;;;25.60;15.13;;;;;;;-2.43;63.26;93737.78;523701;28;794;-70
2024/01/13 00:55:39;;;;;;;26.15;15.32;;;;;;;-2.42;63.13;93731.16;523560;28;1184;-70
2024/01/13 00:55:54;;;;;;;25.80;15.50;;;;;;;-2.42;63.46;93729.22;523675;28;849;-70
2024/01/13 00:56:10;;;;;;;26.23;15.50;;;;;;;-2.39;63.02;93738.38;523535;28;845;-70
2024/01/13 00:56:26;;;;;;;28.23;15.77;;;;;;;-2.39;63.20;93732.97;523631;28;940;-70
2024/01/13 00:56:41;;;;;;;27.00;15.38;;;;;;;-2.38;63.45;93734.44;523426;28;806;-70
2024/01/13 00:56:57;;;;;;;27.05;15.98;;;;;;;-2.42;63.53;93728.47;523435;28;798;-70
2024/01/13 00:57:13;;;;;;;25.45;15.90;;;;;;;-2.43;63.37;93729.69;523522;28;909;-70
2024/01/13 00:57:28;;;;;;;23.23;14.43;;;;;;;-2.53;63.66;93737.06;523470;28;1067;-70
2024/01/13 00:57:44;;;;;;;21.97;13.97;;;;;;;-2.58;63.46;93726.16;523506;28;813;-70
2024/01/13 00:57:59;;;;;;;21.90;14.03;;;;;;;-2.57;63.71;93731.09;523292;28;813;-70
2024/01/13 00:58:16;;;;;;;23.80;14.63;;;;;;;-2.59;63.76;93735.47;523566;28;845;-70
2024/01/13 00:58:31;;;;;;;23.85;15.27;;;;;;;-2.60;63.96;93732.00;523498;28;924;-70
2024/01/13 00:58:46;;;;;;;24.08;15.52;;;;;;;-2.62;63.82;93725.56;523663;28;755;-70
2024/01/13 00:59:02;;;;;;;24.30;14.90;;;;;;;-2.64;63.94;93736.09;523437;28;885;-70
2024/01/13 00:59:17;;;;;;;24.38;14.73;;;;;;;-2.64;63.92;93731.41;523606;28;830;-70
2024/01/13 00:59:33;;;;;;;25.53;15.10;;;;;;;-2.62;64.14;93733.69;523666;28;797;-70
2024/01/13 00:59:48;;;;;;;26.15;14.40;;;;;;;-2.64;64.06;93734.13;523648;28;873;-70
2024/01/13 01:00:04;;;;;;;24.87;14.07;;;;;;;-2.63;63.74;93732.16;523670;28;845;-70
2024/01/13 01:00:20;;;;;;;23.00;14.27;;;;;;;-2.62;63.46;93730.97;523717;28;818;-70
2024/01/13 01:00:35;;;;;;;25.03;15.20;;;;;;;-2.62;63.80;93725.56;523553;28;1118;-70
2024/01/13 01:00:50;;;;;;;28.73;16.53;;;;;;;-2.60;63.67;93731.28;523699;28;810;-70
2024/01/13 01:01:06;;;;;;;27.67;16.57;;;;;;;-2.59;63.58;93732.75;523577;28;802;-70
2024/01/13 01:01:21;;;;;;;26.98;16.73;;;;;;;-2.57;63.95;93730.34;523590;28;766;-70
2024/01/13 01:01:37;;;;;;;30.47;17.23;;;;;;;-2.58;63.61;93729.63;523608;28;858;-70
2024/01/13 01:01:53;;;;;;;32.22;17.17;;;;;;;-2.57;63.91;93738.44;523665;28;845;-70
2024/01/13 01:02:09;;;;;;;29.98;17.17;;;;;;;-2.62;63.57;93736.38;523531;28;924;-70
2024/01/13 01:02:24;;;;;;;27.98;17.00;;;;;;;-2.65;63.84;93738.03;523741;28;802;-70
2024/01/13 01:02:40;;;;;;;27.93;16.83;;;;;;;-2.64;63.66;93739.53;523582;28;865;-70
2024/01/13 01:02:55;;;;;;;26.70;15.63;;;;;;;-2.64;63.92;93736.81;523716;28;798;-70
2024/01/13 01:03:10;;;;;;;25.27;15.77;;;;;;;-2.62;63.69;93736.38;523588;28;920;-70
2024/01/13 01:03:26;;;;;;;28.63;16.38;;;;;;;-2.76;63.94;93710.75;523591;28;857;-70
2024/01/13 01:03:42;;;;;;;28.53;15.70;;;;;;;-2.58;64.09;93739.66;523520;28;1207;-70
2024/01/13 01:03:57;;;;;;;25.38;14.80;;;;;;;-2.57;63.84;93738.44;523592;28;936;-70
2024/01/13 01:04:13;;;;;;;25.53;15.07;;;;;;;-2.57;63.70;93741.16;523682;28;789;-70
2024/01/13 01:04:28;;;;;;;23.40;15.48;;;;;;;-2.58;63.42;93739.66;524152;28;1183;-70
2024/01/13 01:04:44;;;;;;;24.87;15.23;;;;;;;-2.59;63.86;93747.03;525645;28;992;-70
2024/01/13 01:04:59;;;;;;;26.65;15.27;;;;;;;-2.58;63.77;93740.41;525710;28;869;-70
2024/01/13 01:05:14;;;;;;;26.70;15.37;;;;;;;-2.58;63.25;93743.13;525745;28;757;-70
2024/01/13 01:05:30;;;;;;;25.08;14.60;;;;;;;-2.58;63.50;93745.06;525651;28;861;-70
2024/01/13 01:05:45;;;;;;;21.50;14.30;;;;;;;-2.59;63.98;93735.47;525637;28;1221;-69
2024/01/13 01:06:01;;;;;;;24.25;15.90;;;;;;;-2.58;63.77;93748.53;525512;28;819;-70
2024/01/13 01:06:17;;;;;;;27.40;16.20;;;;;;;-2.79;64.22;93719.03;525513;28;804;-70
2024/01/13 01:06:32;;;;;;;27.35;15.80;;;;;;;-2.61;64.19;93744.03;525559;28;828;-70
2024/01/13 01:06:48;;;;;;;26.40;15.98;;;;;;;-2.59;63.69;93746.25;525465;28;923;-70
2024/01/13 01:07:03;;;;;;;26.53;16.07;;;;;;;-2.59;64.10;93741.63;525532;28;835;-70
2024/01/13 01:07:19;;;;;;;26.98;15.73;;;;;;;-2.57;63.74;93749.25;525527;28;895;-70
2024/01/13 01:07:34;;;;;;;26.70;16.07;;;;;;;-2.55;63.61;93742.19;525477;28;834;-70
2024/01/13 01:07:50;;;;;;;26.50;16.48;;;;;;;-2.61;63.71;93738.63;525517;28;849;-70
2024/01/13 01:08:05;;;;;;;26.10;16.23;;;;;;;-2.62;63.38;93744.50;525755;28;749;-70
2024/01/13 01:08:21;;;;;;;25.38;15.80;;;;;;;-2.75;63.57;93746.66;525758;28;794;-70
2024/01/13 01:08:37;;;;;;;24.17;15.27;;;;;;;-2.79;64.23;93743.34;525723;28;900;-70
2024/01/13 01:08:52;;;;;;;23.30;15.23;;;;;;;-2.81;63.65;93737.63;525730;28;852;-70
2024/01/13 01:09:07;;;;;;;25.03;15.73;;;;;;;-2.79;63.66;93738.69;525679;28;765;-70
2024/01/13 01:09:23;;;;;;;25.55;15.40;;;;;;;-2.79;64.37;93744.09;525727;28;826;-70
2024/01/13 01:09:38;;;;;;;24.63;15.43;;;;;;;-2.77;63.85;93741.69;525669;28;750;-70
2024/01/13 01:09:54;;;;;;;23.70;15.38;;;;;;;-2.76;64.42;93737.78;525751;28;916;-70
2024/01/13 01:10:09;;;;;;;23.57;14.50;;;;;;;-3.01;64.33;93711.13;525717;28;753;-70
2024/01/13 01:10:25;;;;;;;24.92;14.98;;;;;;;-2.79;64.24;93744.09;525861;28;793;-70
2024/01/13 01:10:40;;;;;;;26.07;15.50;;;;;;;-2.80;64.17;93741.84;525790;28;857;-70
2024/01/13 01:10:55;;;;;;;24.88;15.07;;;;;;;-2.78;64.07;93742.91;526001;28;840;-70
2024/01/13 01:11:11;;;;;;;23.70;15.27;;;;;;;-2.75;64.17;93739.25;525851;28;791;-70
2024/01/13 01:11:27;;;;;;;25.75;15.75;;;;;;;-2.71;64.15;93741.81;525910;28;797;-70
2024/01/13 01:11:43;;;;;;;28.23;16.52;;;;;;;-2.69;64.49;93742.13;525832;28;841;-70
2024/01/13 01:11:58;;;;;;;28.67;16.93;;;;;;;-2.67;63.97;93745.09;525861;28;861;-70
2024/01/13 01:12:13;;;;;;;24.38;15.57;;;;;;;-2.68;64.41;93744.34;524542;28;1296;-70
2024/01/13 01:12:29;;;;;;;22.83;15.37;;;;;;;-2.69;64.12;93742.13;523796;28;853;-70
2024/01/13 01:12:45;;;;;;;23.50;15.68;;;;;;;-2.68;64.14;93738.19;523857;28;762;-70
2024/01/13 01:13:00;;;;;;;23.38;14.95;;;;;;;-2.69;64.05;93745.56;523738;28;972;-70
2024/01/13 01:13:16;;;;;;;24.37;15.50;;;;;;;-2.72;64.68;93738.38;523766;28;770;-70
2024/01/13 01:13:32;;;;;;;24.38;15.48;;;;;;;-2.71;64.25;93741.81;523645;28;1973;-70
2024/01/13 01:13:47;;;;;;;24.17;14.87;;;;;;;-2.71;63.97;93733.72;523868;28;839;-70
2024/01/13 01:14:02;;;;;;;24.67;15.00;;;;;;;-2.70;63.90;93740.59;523696;28;849;-70